Time;durP1;ratioP1;P1;durP2;ratioP2;P2;SDS_P1;SDS_P2;PMS_P1;PMS_P2;Temp;Humidity;BMP_temperature;BMP_pressure;BME280_temperature;BME280_humidity;BME280_pressure;Samples;Min_cycle;Max_cycle;Signal;HPM_P1;HPM_P2
2022/03/24 00:01:04;;;;;;;51.20;38.70;;;;;;;;;;4973233;28;20053;-71
2022/03/24 00:03:30;;;;;;;53.15;39.63;;;;;;;;;;4974222;28;20601;-72
2022/03/24 00:05:56;;;;;;;50.08;39.22;;;;;;;;;;4971534;28;20125;-72
2022/03/24 00:08:22;;;;;;;48.70;38.85;;;;;;;;;;4976338;28;20109;-72
2022/03/24 00:10:48;;;;;;;53.17;39.10;;;;;;;;;;4974793;28;20050;-71
2022/03/24 00:13:15;;;;;;;54.78;41.67;;;;;;;;;;4973784;28;20042;-71
2022/03/24 00:15:41;;;;;;;50.38;39.75;;;;;;;;;;4976513;28;20082;-72
2022/03/24 00:18:07;;;;;;;54.03;38.85;;;;;;;;;;4977709;28;20058;-72
2022/03/24 00:20:34;;;;;;;56.53;41.17;;;;;;;;;;4975572;28;20486;-72
2022/03/24 00:23:00;;;;;;;50.53;39.63;;;;;;;;;;4972662;28;20142;-71
2022/03/24 00:25:26;;;;;;;48.05;39.33;;;;;;;;;;4965683;28;20039;-71
2022/03/24 00:27:52;;;;;;;51.40;39.50;;;;;;;;;;4968630;28;20517;-71
2022/03/24 00:30:18;;;;;;;54.35;40.45;;;;;;;;;;4964824;28;20057;-71
2022/03/24 00:32:44;;;;;;;56.38;42.10;;;;;;;;;;4975671;28;20054;-71
2022/03/24 00:35:11;;;;;;;57.17;40.75;;;;;;;;;;4975744;28;20047;-71
2022/03/24 00:37:37;;;;;;;56.38;41.50;;;;;;;;;;4973834;28;20465;-71
2022/03/24 00:40:07;;;;;;;53.88;40.95;;;;;;;;;;4964584;28;20417;-72
2022/03/24 00:42:34;;;;;;;54.22;38.75;;;;;;;;;;4976224;28;20043;-72
2022/03/24 00:45:00;;;;;;;51.05;40.47;;;;;;;;;;4976138;28;20055;-72
2022/03/24 00:47:27;;;;;;;56.05;41.75;;;;;;;;;;4975743;28;20122;-71
2022/03/24 00:49:53;;;;;;;55.67;40.75;;;;;;;;;;4971255;28;20047;-70
2022/03/24 00:52:19;;;;;;;53.83;40.10;;;;;;;;;;4973077;28;20043;-71
2022/03/24 00:54:45;;;;;;;48.40;38.72;;;;;;;;;;4975126;28;20383;-71
2022/03/24 00:57:11;;;;;;;46.78;36.63;;;;;;;;;;4975828;28;20082;-72
2022/03/24 00:59:37;;;;;;;48.28;36.35;;;;;;;;;;4974177;28;20051;-72
2022/03/24 01:02:03;;;;;;;51.05;38.22;;;;;;;;;;4972918;28;20043;-71
2022/03/24 01:04:30;;;;;;;48.90;37.85;;;;;;;;;;4974501;28;20502;-71
2022/03/24 01:06:56;;;;;;;55.53;38.90;;;;;;;;;;4970484;28;20046;-73
2022/03/24 01:09:22;;;;;;;50.75;38.97;;;;;;;;;;4974984;28;20047;-72
2022/03/24 01:11:48;;;;;;;51.13;40.45;;;;;;;;;;4973963;28;20050;-71
2022/03/24 01:14:16;;;;;;;52.28;39.97;;;;;;;;;;4969806;28;20120;-72
2022/03/24 01:16:43;;;;;;;56.70;39.55;;;;;;;;;;4972738;28;20069;-72
2022/03/24 01:19:09;;;;;;;50.30;38.78;;;;;;;;;;4972774;28;20043;-72
2022/03/24 01:21:36;;;;;;;54.03;39.38;;;;;;;;;;4974221;28;20042;-71
2022/03/24 01:24:02;;;;;;;56.03;40.10;;;;;;;;;;4970555;28;20046;-72
2022/03/24 01:26:28;;;;;;;57.70;40.78;;;;;;;;;;4973465;28;20049;-71
2022/03/24 01:28:54;;;;;;;52.72;39.30;;;;;;;;;;4969871;28;20489;-72
2022/03/24 01:31:20;;;;;;;56.75;39.97;;;;;;;;;;4969365;28;20046;-72
2022/03/24 01:33:47;;;;;;;53.60;38.83;;;;;;;;;;4975281;28;20109;-72
2022/03/24 01:36:15;;;;;;;59.05;39.83;;;;;;;;;;4973351;28;20109;-72
2022/03/24 01:38:41;;;;;;;55.70;39.88;;;;;;;;;;4975339;28;20047;-72
2022/03/24 01:41:07;;;;;;;56.05;41.72;;;;;;;;;;4973455;28;20461;-72
2022/03/24 01:43:34;;;;;;;57.00;39.50;;;;;;;;;;4973891;28;20490;-72
2022/03/24 01:46:00;;;;;;;55.90;39.53;;;;;;;;;;4974653;28;20129;-72
2022/03/24 01:48:26;;;;;;;54.08;40.22;;;;;;;;;;4963688;28;20103;-72
2022/03/24 01:50:53;;;;;;;57.20;38.72;;;;;;;;;;4974709;28;20079;-72
2022/03/24 01:53:19;;;;;;;50.65;38.90;;;;;;;;;;4975712;28;20049;-72
2022/03/24 01:55:47;;;;;;;53.55;39.22;;;;;;;;;;4974668;28;20506;-72
2022/03/24 01:58:14;;;;;;;51.65;39.15;;;;;;;;;;4974563;28;20050;-72
2022/03/24 02:00:40;;;;;;;47.85;38.63;;;;;;;;;;4973112;28;20062;-72
2022/03/24 02:03:06;;;;;;;59.13;40.45;;;;;;;;;;4973089;28;20043;-72
2022/03/24 02:05:33;;;;;;;56.70;42.38;;;;;;;;;;4963217;28;20413;-71
2022/03/24 02:08:03;;;;;;;57.97;41.03;;;;;;;;;;4974263;28;20039;-71
2022/03/24 02:10:32;;;;;;;60.78;41.72;;;;;;;;;;4973559;28;20042;-72
2022/03/24 02:12:59;;;;;;;53.90;39.65;;;;;;;;;;4970821;28;20486;-71
2022/03/24 02:15:26;;;;;;;56.50;41.70;;;;;;;;;;4965457;28;20039;-71
2022/03/24 02:17:52;;;;;;;58.25;40.78;;;;;;;;;;4975010;28;20043;-72
2022/03/24 02:20:20;;;;;;;50.65;39.60;;;;;;;;;;4974122;28;20097;-72
2022/03/24 02:22:46;;;;;;;55.75;40.17;;;;;;;;;;4974286;28;20434;-72
2022/03/24 02:25:12;;;;;;;56.90;41.03;;;;;;;;;;4966784;28;20134;-72
2022/03/24 02:27:40;;;;;;;54.03;40.30;;;;;;;;;;4973891;28;20129;-72
2022/03/24 02:30:06;;;;;;;50.78;39.72;;;;;;;;;;4974313;28;20062;-72
2022/03/24 02:32:32;;;;;;;55.97;40.20;;;;;;;;;;4973953;28;20061;-71
2022/03/24 02:34:59;;;;;;;56.22;40.80;;;;;;;;;;4968041;28;20043;-73
2022/03/24 02:37:28;;;;;;;54.95;40.58;;;;;;;;;;4963849;28;20106;-71
2022/03/24 02:39:55;;;;;;;55.33;41.35;;;;;;;;;;4972376;28;20391;-72
2022/03/24 02:42:22;;;;;;;58.78;42.38;;;;;;;;;;4973958;28;20399;-72
2022/03/24 02:44:51;;;;;;;58.28;40.72;;;;;;;;;;4973594;28;20046;-72
2022/03/24 02:47:18;;;;;;;53.03;38.40;;;;;;;;;;4959863;28;20051;-72
2022/03/24 02:49:45;;;;;;;50.50;37.60;;;;;;;;;;4970428;28;20581;-72
2022/03/24 02:52:11;;;;;;;48.90;36.95;;;;;;;;;;4960194;28;20039;-72
2022/03/24 02:54:37;;;;;;;49.78;37.60;;;;;;;;;;4970523;28;20049;-72
2022/03/24 02:57:04;;;;;;;50.55;38.92;;;;;;;;;;4973432;28;20074;-71
2022/03/24 02:59:30;;;;;;;57.00;39.15;;;;;;;;;;4973067;28;20047;-72
2022/03/24 03:02:06;;;;;;;51.42;38.67;;;;;;;;;;4974485;28;20054;-71
2022/03/24 03:04:32;;;;;;;49.85;37.42;;;;;;;;;;4963162;28;20113;-72
2022/03/24 03:06:59;;;;;;;55.90;40.20;;;;;;;;;;4970898;28;20097;-71
2022/03/24 03:09:25;;;;;;;55.92;39.28;;;;;;;;;;4970261;28;20402;-71
2022/03/24 03:11:52;;;;;;;54.65;37.72;;;;;;;;;;4973412;28;20514;-71
2022/03/24 03:14:18;;;;;;;56.10;40.28;;;;;;;;;;4977903;28;20401;-73
2022/03/24 03:16:45;;;;;;;56.88;40.90;;;;;;;;;;4983651;28;20508;-72
2022/03/24 03:19:12;;;;;;;60.13;42.78;;;;;;;;;;4973114;28;20405;-72
2022/03/24 03:21:41;;;;;;;64.03;43.33;;;;;;;;;;4969304;28;20539;-72
2022/03/24 03:24:09;;;;;;;63.88;40.60;;;;;;;;;;4972847;28;20529;-72
2022/03/24 03:26:35;;;;;;;64.30;41.25;;;;;;;;;;4972725;28;20047;-72
2022/03/24 03:29:01;;;;;;;65.00;41.38;;;;;;;;;;4968422;28;20403;-71
2022/03/24 03:31:28;;;;;;;57.65;41.78;;;;;;;;;;4961441;28;20115;-71
2022/03/24 03:33:54;;;;;;;59.75;41.70;;;;;;;;;;4972769;28;20050;-71
2022/03/24 03:36:21;;;;;;;58.83;41.92;;;;;;;;;;4971715;28;20077;-71
2022/03/24 03:38:47;;;;;;;65.57;42.97;;;;;;;;;;4972711;28;20105;-72
2022/03/24 03:41:14;;;;;;;64.88;42.75;;;;;;;;;;4971817;28;20047;-72
2022/03/24 03:43:41;;;;;;;62.03;42.95;;;;;;;;;;4971449;28;20109;-72
2022/03/24 03:46:10;;;;;;;63.67;44.28;;;;;;;;;;4962764;28;20086;-72
2022/03/24 03:48:37;;;;;;;66.18;45.22;;;;;;;;;;4973033;28;20039;-71
2022/03/24 03:51:03;;;;;;;58.88;43.17;;;;;;;;;;4971773;28;20104;-72
2022/03/24 03:53:29;;;;;;;56.05;40.67;;;;;;;;;;4972131;28;20043;-72
2022/03/24 03:55:55;;;;;;;63.20;43.38;;;;;;;;;;4968762;28;20050;-71
2022/03/24 03:58:21;;;;;;;56.75;41.05;;;;;;;;;;4968175;28;20078;-72
2022/03/24 04:00:55;;;;;;;59.30;40.95;;;;;;;;;;4970790;28;20082;-71
2022/03/24 04:03:22;;;;;;;59.35;41.15;;;;;;;;;;4955137;28;20050;-72
2022/03/24 04:05:48;;;;;;;56.22;39.28;;;;;;;;;;4962925;28;20051;-71
2022/03/24 04:08:14;;;;;;;60.90;41.72;;;;;;;;;;4971811;28;20043;-71
2022/03/24 04:10:40;;;;;;;59.05;40.97;;;;;;;;;;4971613;28;20173;-71
2022/03/24 04:13:06;;;;;;;55.88;38.65;;;;;;;;;;4972471;28;20047;-71
2022/03/24 04:15:33;;;;;;;63.85;42.47;;;;;;;;;;4961297;28;20051;-72
2022/03/24 04:17:59;;;;;;;72.65;44.92;;;;;;;;;;4969735;28;20047;-72
2022/03/24 04:20:26;;;;;;;65.53;44.88;;;;;;;;;;4974538;28;20086;-72
2022/03/24 04:22:52;;;;;;;65.30;45.25;;;;;;;;;;4968995;28;20047;-72
2022/03/24 04:25:20;;;;;;;66.07;43.70;;;;;;;;;;4970409;28;20097;-72
2022/03/24 04:27:46;;;;;;;65.47;43.22;;;;;;;;;;4971062;28;20051;-71
2022/03/24 04:30:12;;;;;;;65.18;43.20;;;;;;;;;;4976417;28;20043;-72
2022/03/24 04:32:40;;;;;;;62.92;43.67;;;;;;;;;;4975360;28;20046;-71
2022/03/24 04:35:07;;;;;;;65.25;45.05;;;;;;;;;;4974641;28;20051;-71
2022/03/24 04:37:33;;;;;;;66.32;46.78;;;;;;;;;;4975657;28;20043;-71
2022/03/24 04:39:59;;;;;;;73.20;48.78;;;;;;;;;;4975402;28;20521;-72
2022/03/24 04:42:25;;;;;;;74.20;48.17;;;;;;;;;;4965469;28;20043;-71
2022/03/24 04:44:51;;;;;;;68.00;47.00;;;;;;;;;;4975581;28;20054;-71
2022/03/24 04:47:17;;;;;;;63.90;44.63;;;;;;;;;;4975172;28;20038;-72
2022/03/24 04:49:44;;;;;;;66.00;46.13;;;;;;;;;;4975989;28;20042;-72
2022/03/24 04:52:10;;;;;;;62.60;44.78;;;;;;;;;;4974437;28;20042;-71
2022/03/24 04:54:36;;;;;;;67.05;45.33;;;;;;;;;;4957749;28;20057;-71
2022/03/24 04:57:02;;;;;;;61.30;43.65;;;;;;;;;;4973430;28;20070;-71
2022/03/24 04:59:28;;;;;;;59.55;40.85;;;;;;;;;;4972094;28;20053;-71
2022/03/24 05:01:55;;;;;;;64.20;43.33;;;;;;;;;;4974157;28;20039;-72
2022/03/24 05:04:23;;;;;;;59.17;44.05;;;;;;;;;;4974835;28;20047;-72
2022/03/24 05:06:49;;;;;;;62.47;43.30;;;;;;;;;;4974546;28;20091;-71
2022/03/24 05:09:15;;;;;;;63.28;45.40;;;;;;;;;;4973391;28;20051;-72
2022/03/24 05:11:41;;;;;;;74.47;47.00;;;;;;;;;;4958451;28;20110;-71
2022/03/24 05:14:08;;;;;;;65.10;46.78;;;;;;;;;;4960420;28;20059;-71
2022/03/24 05:16:34;;;;;;;68.28;47.47;;;;;;;;;;4973535;28;20039;-71
2022/03/24 05:19:01;;;;;;;73.43;49.97;;;;;;;;;;4975176;28;20047;-71
2022/03/24 05:21:27;;;;;;;78.68;50.67;;;;;;;;;;4974946;28;20034;-72
2022/03/24 05:23:53;;;;;;;72.18;51.35;;;;;;;;;;4974429;28;20043;-72
2022/03/24 05:26:23;;;;;;;76.40;50.33;;;;;;;;;;4973470;28;20055;-72
2022/03/24 05:28:49;;;;;;;70.70;50.42;;;;;;;;;;4974598;28;20129;-72
2022/03/24 05:31:16;;;;;;;66.05;46.35;;;;;;;;;;4969867;28;20046;-72
2022/03/24 05:33:42;;;;;;;63.97;43.88;;;;;;;;;;4973938;28;20051;-71
2022/03/24 05:36:08;;;;;;;58.47;41.22;;;;;;;;;;4974659;28;20406;-71
2022/03/24 05:38:35;;;;;;;60.00;38.78;;;;;;;;;;4973693;28;20038;-71
2022/03/24 05:41:01;;;;;;;56.90;38.53;;;;;;;;;;4972559;28;20043;-71
2022/03/24 05:43:27;;;;;;;56.72;37.90;;;;;;;;;;4972426;28;20502;-71
2022/03/24 05:45:53;;;;;;;56.97;37.95;;;;;;;;;;4974398;28;20065;-71
2022/03/24 05:48:19;;;;;;;54.53;36.80;;;;;;;;;;4966949;28;20043;-72
2022/03/24 05:50:45;;;;;;;52.42;36.80;;;;;;;;;;4974331;28;20051;-71
2022/03/24 05:53:11;;;;;;;52.75;38.13;;;;;;;;;;4972021;28;20049;-71
2022/03/24 05:55:38;;;;;;;54.47;38.13;;;;;;;;;;4974043;28;20051;-71
2022/03/24 05:58:04;;;;;;;56.97;40.42;;;;;;;;;;4974659;28;20482;-71
2022/03/24 06:00:31;;;;;;;60.53;41.40;;;;;;;;;;4974014;28;20078;-71
2022/03/24 06:02:57;;;;;;;64.47;44.40;;;;;;;;;;4973774;28;20082;-71
2022/03/24 06:05:25;;;;;;;63.72;45.22;;;;;;;;;;4974470;28;20090;-71
2022/03/24 06:07:52;;;;;;;67.55;44.20;;;;;;;;;;4974251;28;20046;-71
2022/03/24 06:10:19;;;;;;;60.78;43.42;;;;;;;;;;4988343;28;20050;-71
2022/03/24 06:12:48;;;;;;;63.67;43.35;;;;;;;;;;4979168;28;20457;-71
2022/03/24 06:15:14;;;;;;;55.03;40.63;;;;;;;;;;4974071;28;20066;-71
2022/03/24 06:17:40;;;;;;;56.67;42.58;;;;;;;;;;4973236;28;20044;-71
2022/03/24 06:20:08;;;;;;;58.75;40.72;;;;;;;;;;4973306;28;20050;-72
2022/03/24 06:22:49;;;;;;;59.25;41.67;;;;;;;;;;4971604;28;20042;-72
2022/03/24 06:25:15;;;;;;;61.67;43.20;;;;;;;;;;4973260;28;20035;-72
2022/03/24 06:27:41;;;;;;;60.30;43.85;;;;;;;;;;4974863;28;20442;-72
2022/03/24 06:30:07;;;;;;;58.25;43.33;;;;;;;;;;4973084;28;20059;-72
2022/03/24 06:32:33;;;;;;;53.35;42.08;;;;;;;;;;4984390;28;20046;-72
2022/03/24 06:34:59;;;;;;;57.00;45.15;;;;;;;;;;4973590;28;20030;-71
2022/03/24 06:37:27;;;;;;;63.15;48.42;;;;;;;;;;4974243;28;20078;-71
2022/03/24 06:39:53;;;;;;;59.72;45.20;;;;;;;;;;4969010;28;20054;-71
2022/03/24 06:42:20;;;;;;;58.20;45.45;;;;;;;;;;4973468;28;20053;-70
2022/03/24 06:44:46;;;;;;;56.33;44.90;;;;;;;;;;4966692;28;20518;-72
2022/03/24 06:47:12;;;;;;;54.72;42.92;;;;;;;;;;4970797;28;20288;-72
2022/03/24 06:49:38;;;;;;;47.90;41.03;;;;;;;;;;4980815;28;20125;-72
2022/03/24 06:52:04;;;;;;;49.17;41.10;;;;;;;;;;4991889;28;20125;-71
2022/03/24 06:54:31;;;;;;;46.40;40.05;;;;;;;;;;4970489;28;20353;-71
2022/03/24 06:56:56;;;;;;;47.65;39.42;;;;;;;;;;4971496;28;20416;-71
2022/03/24 06:59:23;;;;;;;56.03;40.60;;;;;;;;;;4971363;28;20054;-70
2022/03/24 07:01:50;;;;;;;69.53;42.08;;;;;;;;;;4970790;28;20552;-72
2022/03/24 07:04:17;;;;;;;60.35;40.75;;;;;;;;;;4971125;28;20085;-72
2022/03/24 07:06:43;;;;;;;58.03;42.40;;;;;;;;;;4973333;28;20405;-72
2022/03/24 07:09:09;;;;;;;48.95;43.42;;;;;;;;;;4960159;28;20051;-72
2022/03/24 07:11:35;;;;;;;53.35;46.30;;;;;;;;;;4971360;28;20177;-72
2022/03/24 07:14:01;;;;;;;65.60;48.13;;;;;;;;;;4970373;28;20418;-71
2022/03/24 07:16:27;;;;;;;62.33;49.03;;;;;;;;;;4972362;28;20043;-71
2022/03/24 07:18:53;;;;;;;60.20;49.88;;;;;;;;;;4970738;28;20058;-71
2022/03/24 07:21:19;;;;;;;57.38;49.65;;;;;;;;;;4967700;28;20043;-72
2022/03/24 07:23:45;;;;;;;58.35;49.72;;;;;;;;;;4972692;28;20512;-70
2022/03/24 07:26:11;;;;;;;58.15;47.92;;;;;;;;;;4971974;28;20517;-72
2022/03/24 07:28:37;;;;;;;56.13;48.10;;;;;;;;;;4973141;28;20043;-78
2022/03/24 07:31:11;;;;;;;56.95;46.53;;;;;;;;;;4973816;28;20049;-72
2022/03/24 07:33:37;;;;;;;56.72;49.58;;;;;;;;;;4968459;28;20050;-72
2022/03/24 07:36:03;;;;;;;55.20;46.90;;;;;;;;;;4973385;28;20047;-72
2022/03/24 07:38:29;;;;;;;53.88;47.08;;;;;;;;;;4965404;28;20051;-72
2022/03/24 07:40:55;;;;;;;53.63;46.55;;;;;;;;;;4964066;28;20109;-71
2022/03/24 07:43:21;;;;;;;55.83;47.00;;;;;;;;;;4963241;28;20261;-71
2022/03/24 07:45:48;;;;;;;54.33;47.03;;;;;;;;;;4964377;28;20055;-70
2022/03/24 07:48:17;;;;;;;50.78;44.58;;;;;;;;;;4964637;28;20078;-70
2022/03/24 07:50:45;;;;;;;53.80;47.05;;;;;;;;;;4963233;28;21544;-71
2022/03/24 07:53:14;;;;;;;56.15;45.67;;;;;;;;;;4947587;29;20040;-71
2022/03/24 07:55:47;;;;;;;54.67;46.05;;;;;;;;;;4967509;28;20059;-71
2022/03/24 07:58:14;;;;;;;52.58;45.08;;;;;;;;;;4969638;28;20050;-72
2022/03/24 08:00:42;;;;;;;53.35;45.92;;;;;;;;;;4972026;28;20061;-71
2022/03/24 08:03:12;;;;;;;55.00;45.42;;;;;;;;;;4969448;28;20043;-72
2022/03/24 08:05:38;;;;;;;52.28;43.95;;;;;;;;;;4976749;28;20498;-72
2022/03/24 08:08:05;;;;;;;54.28;44.47;;;;;;;;;;4976551;28;20050;-71
2022/03/24 08:10:31;;;;;;;48.75;42.33;;;;;;;;;;4958059;28;20047;-72
2022/03/24 08:12:57;;;;;;;45.47;39.85;;;;;;;;;;4974237;28;20038;-72
2022/03/24 08:15:23;;;;;;;47.03;41.05;;;;;;;;;;4974705;28;20038;-72
2022/03/24 08:17:49;;;;;;;45.40;38.78;;;;;;;;;;4975867;28;20043;-72
2022/03/24 08:20:15;;;;;;;48.65;39.30;;;;;;;;;;4976674;28;20047;-71
2022/03/24 08:22:41;;;;;;;49.60;39.90;;;;;;;;;;4975750;28;20042;-71
2022/03/24 08:25:11;;;;;;;52.80;41.22;;;;;;;;;;4976813;28;20275;-71
2022/03/24 08:27:37;;;;;;;52.15;41.92;;;;;;;;;;4977096;28;20046;-71
2022/03/24 08:30:04;;;;;;;45.63;40.08;;;;;;;;;;4974968;28;20043;-72
2022/03/24 08:32:30;;;;;;;49.25;39.95;;;;;;;;;;4975704;28;20050;-71
2022/03/24 08:34:56;;;;;;;46.10;35.17;;;;;;;;;;4976283;28;20047;-72
2022/03/24 08:37:22;;;;;;;43.78;34.08;;;;;;;;;;4976389;28;20042;-71
2022/03/24 08:39:48;;;;;;;44.35;35.15;;;;;;;;;;4975121;28;20109;-71
2022/03/24 08:42:14;;;;;;;44.28;35.35;;;;;;;;;;4976865;28;20054;-72
2022/03/24 08:44:40;;;;;;;47.50;35.80;;;;;;;;;;4975603;28;20055;-71
2022/03/24 08:47:06;;;;;;;47.13;35.45;;;;;;;;;;4975487;28;20075;-72
2022/03/24 08:49:33;;;;;;;45.78;35.45;;;;;;;;;;4976641;28;20105;-72
2022/03/24 08:51:59;;;;;;;47.55;35.35;;;;;;;;;;4976212;28;20050;-73
2022/03/24 08:54:25;;;;;;;47.42;37.35;;;;;;;;;;4976522;28;20050;-71
2022/03/24 08:56:51;;;;;;;46.10;37.90;;;;;;;;;;4975401;28;20059;-72
2022/03/24 08:59:18;;;;;;;47.63;36.17;;;;;;;;;;4975128;28;20057;-71
2022/03/24 09:01:44;;;;;;;46.95;36.47;;;;;;;;;;4976377;28;20418;-72
2022/03/24 09:04:11;;;;;;;48.80;37.50;;;;;;;;;;4975327;28;20038;-71
2022/03/24 09:06:40;;;;;;;46.35;35.38;;;;;;;;;;4974837;28;20133;-72
2022/03/24 09:09:07;;;;;;;45.05;36.05;;;;;;;;;;4973878;28;20043;-71
2022/03/24 09:11:33;;;;;;;50.38;36.15;;;;;;;;;;4974514;28;20046;-71
2022/03/24 09:13:59;;;;;;;47.20;35.08;;;;;;;;;;4973449;28;20046;-71
2022/03/24 09:16:24;;;;;;;41.60;32.72;;;;;;;;;;4974483;28;20118;-71
2022/03/24 09:18:51;;;;;;;48.55;33.85;;;;;;;;;;4974705;28;20050;-72
2022/03/24 09:21:17;;;;;;;44.90;33.00;;;;;;;;;;4964192;28;20482;-71
2022/03/24 09:23:43;;;;;;;46.30;33.72;;;;;;;;;;4973704;28;20047;-72
2022/03/24 09:26:09;;;;;;;45.35;30.75;;;;;;;;;;4968316;28;20047;-71
2022/03/24 09:28:35;;;;;;;47.78;31.77;;;;;;;;;;4973200;28;20104;-72
2022/03/24 09:31:01;;;;;;;47.10;33.67;;;;;;;;;;4974309;28;20043;-72
2022/03/24 09:33:27;;;;;;;47.75;34.70;;;;;;;;;;4974354;28;20073;-71
2022/03/24 09:35:53;;;;;;;47.25;34.20;;;;;;;;;;4968823;28;20042;-72
2022/03/24 09:38:20;;;;;;;47.17;34.20;;;;;;;;;;4973893;28;20046;-72
2022/03/24 09:40:46;;;;;;;45.80;32.85;;;;;;;;;;4980452;28;20047;-72
2022/03/24 09:43:15;;;;;;;42.90;31.75;;;;;;;;;;4974060;28;20086;-72
2022/03/24 09:45:42;;;;;;;43.00;32.15;;;;;;;;;;4974558;28;20054;-71
2022/03/24 09:48:10;;;;;;;45.15;33.40;;;;;;;;;;4975555;28;20046;-72
2022/03/24 09:50:37;;;;;;;45.33;32.60;;;;;;;;;;4974482;28;20058;-71
2022/03/24 09:53:03;;;;;;;42.10;31.98;;;;;;;;;;4974313;28;20098;-72
2022/03/24 09:55:32;;;;;;;43.70;32.17;;;;;;;;;;4972275;28;20057;-72
2022/03/24 09:57:59;;;;;;;43.28;30.80;;;;;;;;;;4974605;28;20561;-71
2022/03/24 10:00:25;;;;;;;47.88;32.10;;;;;;;;;;4973280;28;20053;-73
2022/03/24 10:03:07;;;;;;;43.10;31.35;;;;;;;;;;4974645;28;20042;-72
2022/03/24 10:05:33;;;;;;;44.80;31.38;;;;;;;;;;4966865;28;20087;-72
2022/03/24 10:08:04;;;;;;;43.47;31.88;;;;;;;;;;4974166;28;20078;-71
2022/03/24 10:10:34;;;;;;;41.63;31.67;;;;;;;;;;4974123;28;20046;-71
2022/03/24 10:13:00;;;;;;;41.35;30.65;;;;;;;;;;4971414;28;20109;-73
2022/03/24 10:15:26;;;;;;;46.25;31.92;;;;;;;;;;4972466;28;20054;-72
2022/03/24 10:17:52;;;;;;;44.00;31.83;;;;;;;;;;4973144;28;20035;-72
2022/03/24 10:20:19;;;;;;;45.28;32.38;;;;;;;;;;4973089;28;20043;-73
2022/03/24 10:22:55;;;;;;;49.80;33.78;;;;;;;;;;4972497;28;20042;-72
2022/03/24 10:25:25;;;;;;;45.00;31.80;;;;;;;;;;4953395;28;20449;-72
2022/03/24 10:28:07;;;;;;;45.08;31.05;;;;;;;;;;4973758;28;20498;-72
2022/03/24 10:30:45;;;;;;;41.65;30.73;;;;;;;;;;4973882;28;20058;-72
2022/03/24 10:33:25;;;;;;;44.45;32.70;;;;;;;;;;4974018;28;20421;-72
2022/03/24 10:35:51;;;;;;;39.33;30.63;;;;;;;;;;4965462;28;20087;-72
2022/03/24 10:38:31;;;;;;;40.28;28.88;;;;;;;;;;4973829;28;20102;-71
2022/03/24 10:40:56;;;;;;;41.35;29.65;;;;;;;;;;4969000;28;20054;-71
2022/03/24 10:43:23;;;;;;;40.00;28.80;;;;;;;;;;4971415;28;20142;-70
2022/03/24 10:45:49;;;;;;;41.13;30.98;;;;;;;;;;4969500;28;20043;-71
2022/03/24 10:48:21;;;;;;;41.63;30.00;;;;;;;;;;4965824;28;20382;-70
2022/03/24 10:50:47;;;;;;;37.63;28.70;;;;;;;;;;4970554;28;20470;-71
2022/03/24 10:53:19;;;;;;;36.08;28.17;;;;;;;;;;4971514;28;20081;-72
2022/03/24 10:55:47;;;;;;;40.78;28.92;;;;;;;;;;4969791;28;20093;-71
2022/03/24 10:58:31;;;;;;;38.67;29.52;;;;;;;;;;4973091;28;20125;-71
2022/03/24 11:00:59;;;;;;;39.28;29.92;;;;;;;;;;4970152;28;20493;-71
2022/03/24 11:03:25;;;;;;;35.80;28.50;;;;;;;;;;4973165;28;20062;-70
2022/03/24 11:05:51;;;;;;;37.88;26.13;;;;;;;;;;4972694;28;20437;-71
2022/03/24 11:08:18;;;;;;;38.97;26.40;;;;;;;;;;4973315;28;20046;-70
2022/03/24 11:10:46;;;;;;;36.03;26.60;;;;;;;;;;4967901;28;20051;-71
2022/03/24 11:13:13;;;;;;;40.75;28.08;;;;;;;;;;4973288;28;20122;-70
2022/03/24 11:15:41;;;;;;;36.67;29.10;;;;;;;;;;4972397;28;20047;-70
2022/03/24 11:18:09;;;;;;;41.38;29.95;;;;;;;;;;4971059;28;20122;-71
2022/03/24 11:20:37;;;;;;;39.72;29.50;;;;;;;;;;4971995;28;20113;-71
2022/03/24 11:23:10;;;;;;;41.35;28.60;;;;;;;;;;4972641;28;20051;-71
2022/03/24 11:25:36;;;;;;;40.22;29.52;;;;;;;;;;4972338;28;20093;-71
2022/03/24 11:28:04;;;;;;;39.83;28.30;;;;;;;;;;4970968;28;20070;-71
2022/03/24 11:30:30;;;;;;;34.47;24.40;;;;;;;;;;4972389;28;20046;-71
2022/03/24 11:32:56;;;;;;;36.22;25.98;;;;;;;;;;4971433;28;20045;-71
2022/03/24 11:35:23;;;;;;;36.15;24.00;;;;;;;;;;4972823;28;20061;-70
2022/03/24 11:37:49;;;;;;;27.58;21.63;;;;;;;;;;4972638;28;20405;-70
2022/03/24 11:40:20;;;;;;;30.98;22.33;;;;;;;;;;4973492;28;20043;-70
2022/03/24 11:42:52;;;;;;;27.73;20.33;;;;;;;;;;4973155;28;20441;-70
2022/03/24 11:45:25;;;;;;;33.20;23.40;;;;;;;;;;4973774;28;20050;-70
2022/03/24 11:47:53;;;;;;;35.17;24.02;;;;;;;;;;4953449;29;20062;-70
2022/03/24 11:50:34;;;;;;;32.40;22.40;;;;;;;;;;4956374;28;20055;-70
2022/03/24 11:53:18;;;;;;;31.00;23.58;;;;;;;;;;4973441;28;20054;-70
2022/03/24 11:55:59;;;;;;;29.40;22.30;;;;;;;;;;4972486;28;20134;-69
2022/03/24 11:58:25;;;;;;;;;;;;;;;;;;4982290;28;20047;-72
2022/03/24 12:00:51;;;;;;;26.70;20.83;;;;;;;;;;4969774;28;19977;-69
2022/03/24 12:03:36;;;;;;;29.23;20.73;;;;;;;;;;4973206;28;20046;-70
2022/03/24 12:06:02;;;;;;;28.58;22.45;;;;;;;;;;4973254;28;20069;-70
2022/03/24 12:08:29;;;;;;;31.58;22.88;;;;;;;;;;4955751;28;20051;-70
2022/03/24 12:10:55;;;;;;;29.85;21.65;;;;;;;;;;4972111;28;20557;-70
2022/03/24 12:13:22;;;;;;;32.90;23.55;;;;;;;;;;4972239;28;20133;-70
2022/03/24 12:16:07;;;;;;;30.88;24.25;;;;;;;;;;4971781;28;20445;-70
2022/03/24 12:18:43;;;;;;;30.02;22.00;;;;;;;;;;4965401;28;20050;-70
2022/03/24 12:21:09;;;;;;;27.25;22.75;;;;;;;;;;4972319;28;20050;-70
2022/03/24 12:23:54;;;;;;;30.27;23.75;;;;;;;;;;4971756;28;20043;-70
2022/03/24 12:26:19;;;;;;;32.38;22.77;;;;;;;;;;4973096;28;20082;-69
2022/03/24 12:28:45;;;;;;;28.25;20.60;;;;;;;;;;4981069;28;20077;-70
2022/03/24 12:31:12;;;;;;;30.90;21.27;;;;;;;;;;4990821;28;20101;-70
2022/03/24 12:33:46;;;;;;;27.67;21.20;;;;;;;;;;4971780;28;20054;-70
2022/03/24 12:36:14;;;;;;;29.38;21.75;;;;;;;;;;4980569;28;20404;-70
2022/03/24 12:38:46;;;;;;;24.65;19.67;;;;;;;;;;4988330;28;20118;-71
2022/03/24 12:41:13;;;;;;;25.02;19.67;;;;;;;;;;4972859;28;20473;-71
2022/03/24 12:43:43;;;;;;;27.38;20.48;;;;;;;;;;4972566;28;20421;-71
2022/03/24 12:46:25;;;;;;;28.25;20.05;;;;;;;;;;4970427;28;20053;-71
2022/03/24 12:48:52;;;;;;;26.27;19.02;;;;;;;;;;4958220;28;20058;-70
2022/03/24 12:51:20;;;;;;;29.83;21.35;;;;;;;;;;4974765;28;20054;-70
2022/03/24 12:53:49;;;;;;;26.70;18.77;;;;;;;;;;4970303;28;20502;-69
2022/03/24 12:56:23;;;;;;;27.85;20.05;;;;;;;;;;4973134;28;20054;-70
2022/03/24 12:58:52;;;;;;;54.15;26.45;;;;;;;;;;4976001;28;20051;-69
2022/03/24 13:01:18;;;;;;;27.15;19.98;;;;;;;;;;4966792;28;20414;-70
2022/03/24 13:03:44;;;;;;;31.67;19.95;;;;;;;;;;4959072;28;20731;-70
2022/03/24 13:06:10;;;;;;;28.38;18.20;;;;;;;;;;4965794;28;20086;-70
2022/03/24 13:08:36;;;;;;;24.80;18.10;;;;;;;;;;4975225;28;20557;-69
2022/03/24 13:11:04;;;;;;;28.50;17.02;;;;;;;;;;4974812;28;20130;-70
2022/03/24 13:13:30;;;;;;;26.65;15.52;;;;;;;;;;4973328;28;20054;-69
2022/03/24 13:15:56;;;;;;;19.65;14.80;;;;;;;;;;4976184;28;20086;-69
2022/03/24 13:18:25;;;;;;;24.38;15.48;;;;;;;;;;4960607;28;20082;-69
2022/03/24 13:20:53;;;;;;;23.27;14.93;;;;;;;;;;4957035;28;20066;-70
2022/03/24 13:23:20;;;;;;;26.23;16.48;;;;;;;;;;4975503;28;20054;-69
2022/03/24 13:25:49;;;;;;;27.05;18.50;;;;;;;;;;4974942;28;20134;-71
2022/03/24 13:28:16;;;;;;;27.30;18.17;;;;;;;;;;4968858;28;20050;-70
2022/03/24 13:30:42;;;;;;;26.85;19.23;;;;;;;;;;4975860;28;20062;-70
2022/03/24 13:33:09;;;;;;;27.65;19.63;;;;;;;;;;4975524;28;20054;-70
2022/03/24 13:35:37;;;;;;;25.02;17.88;;;;;;;;;;4975854;28;20046;-70
2022/03/24 13:38:13;;;;;;;27.50;18.45;;;;;;;;;;4975724;28;20109;-70
2022/03/24 13:40:43;;;;;;;25.27;18.45;;;;;;;;;;4975447;28;20055;-70
2022/03/24 13:43:10;;;;;;;26.52;18.58;;;;;;;;;;4974615;28;20042;-70
2022/03/24 13:45:37;;;;;;;26.52;17.73;;;;;;;;;;4974400;28;20074;-69
2022/03/24 13:48:11;;;;;;;27.13;17.05;;;;;;;;;;4975464;28;20090;-69
2022/03/24 13:50:37;;;;;;;24.77;17.45;;;;;;;;;;4975610;28;20138;-70
2022/03/24 13:53:20;;;;;;;26.27;18.42;;;;;;;;;;4975113;28;20062;-70
2022/03/24 13:55:48;;;;;;;28.30;18.35;;;;;;;;;;4957840;28;20061;-70
2022/03/24 13:58:15;;;;;;;29.88;19.23;;;;;;;;;;4975235;28;20081;-70
2022/03/24 14:00:45;;;;;;;29.35;20.20;;;;;;;;;;4971740;28;20043;-70
2022/03/24 14:03:18;;;;;;;27.00;20.40;;;;;;;;;;4961633;28;20490;-70
2022/03/24 14:05:44;;;;;;;30.02;19.02;;;;;;;;;;4974819;28;20122;-70
2022/03/24 14:08:10;;;;;;;29.85;19.67;;;;;;;;;;4975180;28;20573;-70
2022/03/24 14:10:44;;;;;;;28.55;19.77;;;;;;;;;;4972708;28;20122;-70
2022/03/24 14:13:17;;;;;;;30.25;20.08;;;;;;;;;;4974092;28;20042;-69
2022/03/24 14:15:44;;;;;;;27.52;19.27;;;;;;;;;;4972680;28;20463;-70
2022/03/24 14:18:14;;;;;;;30.75;20.45;;;;;;;;;;4986047;28;20042;-70
2022/03/24 14:20:41;;;;;;;29.70;20.17;;;;;;;;;;4980958;28;20054;-70